createdAt,value
2018-06-15T00:01:04.811Z,15.10
2018-06-15T00:03:33.865Z,15.00
2018-06-15T00:06:02.959Z,15.00
2018-06-15T00:11:00.770Z,14.90
2018-06-15T00:13:29.969Z,14.90
2018-06-15T00:15:59.223Z,14.90
2018-06-15T00:18:28.332Z,14.90
2018-06-15T00:20:57.441Z,14.90
2018-06-15T00:23:26.761Z,14.80
2018-06-15T00:25:55.805Z,14.90
2018-06-15T00:28:24.885Z,14.90
2018-06-15T00:30:55.411Z,14.90
2018-06-15T00:33:24.445Z,14.90
2018-06-15T00:35:53.543Z,14.90
2018-06-15T00:38:22.845Z,14.80
2018-06-15T00:40:51.988Z,14.80
2018-06-15T00:43:21.031Z,14.80
2018-06-15T00:45:50.258Z,14.80
2018-06-15T00:48:19.387Z,14.70
2018-06-15T00:50:48.574Z,14.70
2018-06-15T00:53:18.427Z,14.70
2018-06-15T00:55:48.063Z,14.70
2018-06-15T00:58:17.303Z,14.70
2018-06-15T01:03:15.356Z,14.70
2018-06-15T01:05:44.499Z,14.60
2018-06-15T01:08:13.867Z,14.60
2018-06-15T01:10:43.015Z,14.50
2018-06-15T01:13:12.088Z,14.40
2018-06-15T01:15:41.203Z,14.30
2018-06-15T01:18:10.415Z,14.30
2018-06-15T01:20:39.534Z,14.20
2018-06-15T01:23:09.048Z,14.20
2018-06-15T01:25:38.087Z,14.20
2018-06-15T01:28:07.172Z,14.20
2018-06-15T01:30:36.743Z,14.20
2018-06-15T01:33:06.409Z,14.10
2018-06-15T01:35:35.599Z,14.10
2018-06-15T01:38:04.759Z,14.10
2018-06-15T01:40:33.983Z,14.10
2018-06-15T01:43:04.330Z,14.00
2018-06-15T01:45:33.433Z,13.90
2018-06-15T01:50:31.383Z,13.90
2018-06-15T01:53:00.423Z,13.80
2018-06-15T01:55:29.987Z,13.80
2018-06-15T01:57:59.444Z,13.70
2018-06-15T02:00:28.509Z,13.70
2018-06-15T02:02:57.937Z,13.70
2018-06-15T02:05:27.191Z,13.70
2018-06-15T02:07:56.447Z,13.70
2018-06-15T02:10:25.790Z,13.70
2018-06-15T02:12:54.857Z,13.70
2018-06-15T02:15:24.021Z,13.70
2018-06-15T02:17:53.316Z,13.60
2018-06-15T02:20:22.403Z,13.60
2018-06-15T02:22:51.494Z,13.60
2018-06-15T02:25:20.943Z,13.50
2018-06-15T02:27:50.143Z,13.50
2018-06-15T02:30:20.008Z,13.50
2018-06-15T02:32:49.245Z,13.40
2018-06-15T02:35:18.400Z,13.40
2018-06-15T02:37:48.067Z,13.40
2018-06-15T02:40:17.603Z,13.40
2018-06-15T02:42:46.713Z,13.20
2018-06-15T02:47:44.559Z,13.10
2018-06-15T02:50:14.297Z,13.20
2018-06-15T02:52:43.337Z,13.20
2018-06-15T02:55:12.985Z,13.20
2018-06-15T02:57:42.106Z,13.20
2018-06-15T03:00:11.645Z,13.20
2018-06-15T03:02:41.155Z,13.10
2018-06-15T03:05:10.894Z,13.10
2018-06-15T03:07:39.951Z,13.00
2018-06-15T03:10:09.072Z,13.10
2018-06-15T03:12:38.238Z,13.00
2018-06-15T03:15:07.700Z,12.90
2018-06-15T03:17:37.236Z,12.90
2018-06-15T03:20:06.342Z,13.00
2018-06-15T03:22:35.405Z,12.90
2018-06-15T03:25:04.818Z,12.90
2018-06-15T03:30:03.201Z,12.80
2018-06-15T03:32:32.753Z,12.80
2018-06-15T03:35:01.972Z,12.80
2018-06-15T03:37:31.194Z,12.80
2018-06-15T03:40:00.938Z,12.80
2018-06-15T03:42:29.983Z,12.70
2018-06-15T03:44:59.122Z,12.80
2018-06-15T03:47:28.406Z,12.70
2018-06-15T03:52:26.215Z,12.70
2018-06-15T03:54:55.789Z,12.70
2018-06-15T03:57:25.073Z,12.70
2018-06-15T04:02:24.021Z,12.70
2018-06-15T04:04:53.076Z,12.70
2018-06-15T04:07:22.138Z,12.70
2018-06-15T04:09:51.600Z,12.70
2018-06-15T04:12:20.707Z,12.70
2018-06-15T04:14:49.790Z,12.70
2018-06-15T04:17:19.125Z,12.80
2018-06-15T04:19:48.211Z,12.70
2018-06-15T04:24:46.188Z,12.70
2018-06-15T04:27:15.276Z,12.70
2018-06-15T04:29:44.389Z,12.70
2018-06-15T04:32:13.769Z,12.80
2018-06-15T04:37:12.783Z,12.80
2018-06-15T04:39:41.981Z,12.90
2018-06-15T04:44:39.897Z,13.10
2018-06-15T04:47:09.371Z,13.10
2018-06-15T04:49:38.912Z,13.20
2018-06-15T04:52:08.037Z,13.30
2018-06-15T04:54:37.341Z,13.40
2018-06-15T04:57:06.513Z,13.50
2018-06-15T04:59:35.550Z,13.50
2018-06-15T05:02:04.827Z,13.50
2018-06-15T05:04:34.195Z,13.50
2018-06-15T05:07:03.397Z,13.60
2018-06-15T05:09:33.574Z,13.70
2018-06-15T05:12:03.633Z,13.70
2018-06-15T05:14:32.933Z,13.80
2018-06-15T05:17:02.019Z,13.80
2018-06-15T05:19:31.343Z,13.90
2018-06-15T05:22:00.417Z,13.90
2018-06-15T05:24:29.671Z,14.00
2018-06-15T05:26:59.194Z,14.10
2018-06-15T05:29:28.321Z,14.30
2018-06-15T05:31:57.663Z,14.30
2018-06-15T05:34:27.129Z,14.50
2018-06-15T05:36:56.308Z,14.60
2018-06-15T05:39:25.550Z,14.60
2018-06-15T05:41:55.173Z,14.70
2018-06-15T05:44:24.364Z,14.90
2018-06-15T05:46:53.544Z,14.90
2018-06-15T05:49:22.866Z,14.90
2018-06-15T05:51:51.985Z,15.00
2018-06-15T05:54:21.982Z,15.00
2018-06-15T05:56:51.098Z,15.10
2018-06-15T05:59:20.316Z,15.10
2018-06-15T06:01:50.172Z,15.20
2018-06-15T06:04:19.364Z,15.10
2018-06-15T06:06:49.018Z,15.20
2018-06-15T06:09:18.102Z,15.30
2018-06-15T06:11:47.295Z,15.30
2018-06-15T06:16:45.178Z,15.40
2018-06-15T06:19:14.526Z,15.50
2018-06-15T06:21:43.667Z,15.50
2018-06-15T06:24:12.840Z,15.40
2018-06-15T06:26:42.053Z,15.40
2018-06-15T06:29:17.623Z,15.50
2018-06-15T06:31:46.998Z,15.50
2018-06-15T06:34:16.163Z,15.60
2018-06-15T06:36:45.284Z,15.70
2018-06-15T06:39:14.712Z,15.90
2018-06-15T06:41:44.019Z,16.10
2018-06-15T06:44:13.139Z,16.30
2018-06-15T06:46:42.664Z,16.40
2018-06-15T06:49:11.847Z,16.40
2018-06-15T06:51:40.986Z,16.60
2018-06-15T06:54:10.313Z,16.70
2018-06-15T07:01:37.195Z,16.50
2018-06-15T07:04:06.320Z,16.50
2018-06-15T07:06:35.477Z,16.50
2018-06-15T07:09:09.033Z,16.60
2018-06-15T07:14:29.412Z,16.90
2018-06-15T07:16:59.796Z,17.10
2018-06-15T07:19:28.867Z,17.10
2018-06-15T07:21:58.030Z,17.10
2018-06-15T07:24:27.214Z,17.10
2018-06-15T07:26:56.490Z,17.10
2018-06-15T07:29:25.890Z,17.30
2018-06-15T07:31:54.975Z,17.30
2018-06-15T07:36:52.991Z,17.30
2018-06-15T07:39:22.262Z,17.50
2018-06-15T07:41:51.309Z,17.50
2018-06-15T07:44:20.799Z,17.70
2018-06-15T07:46:50.002Z,17.70
2018-06-15T07:49:19.155Z,17.90
2018-06-15T07:51:48.414Z,17.80
2018-06-15T07:54:17.612Z,17.90
2018-06-15T07:56:47.357Z,17.90
2018-06-15T07:59:16.654Z,17.90
2018-06-15T08:01:46.422Z,18.10
2018-06-15T08:04:15.628Z,18.20
2018-06-15T08:06:45.212Z,18.30
2018-06-15T08:11:43.404Z,18.40
2018-06-15T08:14:13.309Z,18.50
2018-06-15T08:16:43.192Z,18.60
2018-06-15T08:19:13.007Z,18.70
2018-06-15T08:21:42.546Z,18.70
2018-06-15T08:26:40.996Z,19.00
2018-06-15T08:29:10.556Z,19.20
2018-06-15T08:31:39.752Z,19.40
2018-06-15T08:34:08.992Z,19.60
2018-06-15T08:36:38.259Z,19.60
2018-06-15T08:39:09.888Z,19.70
2018-06-15T08:41:39.268Z,19.80
2018-06-15T08:44:08.939Z,19.90
2018-06-15T08:46:38.492Z,20.00
2018-06-15T08:49:08.199Z,20.10
2018-06-15T08:51:37.419Z,20.00
2018-06-15T08:54:06.640Z,20.10
2018-06-15T08:56:36.029Z,20.20
2018-06-15T08:59:05.129Z,20.20
2018-06-15T09:01:34.941Z,20.20
2018-06-15T09:04:04.347Z,20.40
2018-06-15T09:06:33.406Z,20.40
2018-06-15T09:09:02.637Z,20.50
2018-06-15T09:11:34.547Z,20.60
2018-06-15T09:14:03.632Z,20.80
2018-06-15T09:16:32.795Z,20.90
2018-06-15T09:19:02.173Z,21.00
2018-06-15T09:21:31.253Z,21.10
2018-06-15T09:24:00.313Z,21.10
2018-06-15T09:26:29.525Z,21.20
2018-06-15T09:28:58.705Z,21.50
2018-06-15T09:31:27.853Z,21.70
2018-06-15T09:36:26.021Z,21.80
2018-06-15T09:38:55.238Z,22.00
2018-06-15T09:41:24.791Z,22.30
2018-06-15T09:43:54.185Z,22.40
2018-06-15T09:46:23.305Z,22.30
2018-06-15T09:48:52.563Z,22.20
2018-06-15T09:51:21.691Z,22.10
2018-06-15T09:53:50.870Z,22.10
2018-06-15T09:56:20.163Z,22.10
2018-06-15T09:58:53.241Z,22.20
2018-06-15T10:01:22.473Z,21.90
2018-06-15T10:03:51.711Z,21.90
2018-06-15T10:06:21.025Z,22.10
2018-06-15T10:08:50.134Z,22.30
2018-06-15T10:11:19.289Z,22.70
2018-06-15T10:13:49.038Z,22.70
2018-06-15T10:16:18.074Z,22.80
2018-06-15T10:18:47.224Z,23.00
2018-06-15T10:21:16.536Z,22.90
2018-06-15T10:23:45.632Z,23.00
2018-06-15T10:26:14.730Z,23.10
2018-06-15T10:28:44.133Z,23.20
2018-06-15T10:31:13.239Z,23.40
2018-06-15T10:33:42.294Z,23.60
2018-06-15T10:36:11.538Z,23.80
2018-06-15T10:38:40.724Z,23.80
2018-06-15T10:41:10.372Z,23.70
2018-06-15T10:43:39.953Z,23.80
2018-06-15T10:46:09.036Z,23.90
2018-06-15T10:48:38.771Z,24.20
2018-06-15T10:53:37.032Z,23.90
2018-06-15T10:56:06.296Z,24.00
2018-06-15T10:58:35.747Z,24.10
2018-06-15T11:01:04.895Z,24.00
2018-06-15T11:03:33.949Z,23.70
2018-06-15T11:06:03.326Z,23.90
2018-06-15T11:08:32.375Z,23.90
2018-06-15T11:11:01.562Z,24.00
2018-06-15T11:13:30.932Z,24.10
2018-06-15T11:16:00.446Z,24.30
2018-06-15T11:18:29.534Z,24.50
2018-06-15T11:20:59.112Z,24.70
2018-06-15T11:23:28.282Z,24.70
2018-06-15T11:25:58.101Z,24.30
2018-06-15T11:30:56.224Z,24.30
2018-06-15T11:33:25.234Z,24.30
2018-06-15T11:35:54.761Z,24.20
2018-06-15T11:38:23.931Z,24.20
2018-06-15T11:40:53.150Z,24.20
2018-06-15T11:43:22.565Z,24.20
2018-06-15T11:45:51.844Z,24.20
2018-06-15T11:48:20.908Z,24.50
2018-06-15T11:50:50.415Z,24.90
2018-06-15T11:53:19.567Z,25.30
2018-06-15T11:55:48.762Z,25.60
2018-06-15T11:58:18.358Z,25.70
2018-06-15T12:00:47.521Z,25.60
2018-06-15T12:03:17.434Z,25.40
2018-06-15T12:05:46.888Z,25.40
2018-06-15T12:08:15.981Z,25.40
2018-06-15T12:10:45.110Z,25.50
2018-06-15T12:13:14.784Z,25.60
2018-06-15T12:15:43.890Z,25.60
2018-06-15T12:18:13.242Z,25.70
2018-06-15T12:20:42.624Z,25.70
2018-06-15T12:23:11.846Z,25.70
2018-06-15T12:25:41.066Z,26.00
2018-06-15T12:28:10.534Z,26.10
2018-06-15T12:30:39.584Z,26.20
2018-06-15T12:33:08.721Z,25.90
2018-06-15T12:35:37.978Z,25.70
2018-06-15T12:38:08.506Z,25.40
2018-06-15T12:40:37.913Z,25.10
2018-06-15T12:43:07.206Z,25.10
2018-06-15T12:45:36.334Z,25.30
2018-06-15T12:48:05.758Z,25.70
2018-06-15T12:50:34.914Z,25.90
2018-06-15T12:55:32.953Z,26.00
2018-06-15T12:58:02.577Z,26.10
2018-06-15T13:00:31.729Z,26.00
2018-06-15T13:03:01.078Z,26.00
2018-06-15T13:05:30.219Z,26.00
2018-06-15T13:10:28.340Z,26.40
2018-06-15T13:12:57.478Z,26.50
2018-06-15T13:15:26.558Z,26.60
2018-06-15T13:17:55.936Z,26.70
2018-06-15T13:20:25.433Z,26.10
2018-06-15T13:22:54.484Z,25.80
2018-06-15T13:25:24.552Z,25.80
2018-06-15T13:27:53.608Z,25.90
2018-06-15T13:30:22.774Z,26.00
2018-06-15T13:32:52.069Z,25.80
2018-06-15T13:35:21.168Z,26.10
2018-06-15T13:37:50.291Z,26.50
2018-06-15T13:40:19.652Z,26.50
2018-06-15T13:42:49.100Z,26.60
2018-06-15T13:45:18.168Z,26.60
2018-06-15T13:47:47.672Z,26.40
2018-06-15T13:50:16.766Z,26.40
2018-06-15T13:52:45.931Z,26.50
2018-06-15T13:55:16.186Z,26.70
2018-06-15T13:57:45.346Z,26.70
2018-06-15T14:00:14.456Z,26.50
2018-06-15T14:02:44.246Z,26.80
2018-06-15T14:05:13.348Z,26.70
2018-06-15T14:07:42.402Z,26.60
2018-06-15T14:12:40.410Z,26.50
2018-06-15T14:15:09.575Z,26.50
2018-06-15T14:20:07.788Z,26.30
2018-06-15T14:22:37.188Z,26.50
2018-06-15T14:25:06.774Z,26.70
2018-06-15T14:27:35.838Z,26.60
2018-06-15T14:32:34.614Z,26.80
2018-06-15T14:35:03.817Z,26.60
2018-06-15T14:37:32.931Z,26.80
2018-06-15T14:40:02.564Z,26.60
2018-06-15T14:42:31.796Z,26.40
2018-06-15T14:45:00.898Z,26.20
2018-06-15T14:47:30.861Z,26.20
2018-06-15T14:50:00.001Z,26.30
2018-06-15T14:52:29.711Z,26.70
2018-06-15T14:54:59.248Z,27.00
2018-06-15T14:57:28.370Z,26.90
2018-06-15T14:59:57.570Z,26.90
2018-06-15T15:02:26.874Z,27.00
2018-06-15T15:04:56.030Z,27.10
2018-06-15T15:07:25.266Z,27.10
2018-06-15T15:09:54.753Z,26.70
2018-06-15T15:12:23.852Z,26.50
2018-06-15T15:14:53.003Z,26.20
2018-06-15T15:17:22.283Z,26.30
2018-06-15T15:19:51.387Z,26.60
2018-06-15T15:22:20.553Z,26.80
2018-06-15T15:24:50.484Z,26.70
2018-06-15T15:27:19.641Z,26.60
2018-06-15T15:29:48.760Z,26.50
2018-06-15T15:32:18.114Z,26.20
2018-06-15T15:34:47.811Z,26.20
2018-06-15T15:37:16.883Z,26.50
2018-06-15T15:39:46.318Z,26.90
2018-06-15T15:42:15.370Z,27.10
2018-06-15T15:44:44.516Z,27.20
2018-06-15T15:47:13.749Z,27.40
2018-06-15T15:49:42.966Z,27.20
2018-06-15T15:52:12.129Z,26.80
2018-06-15T15:54:41.493Z,26.70
2018-06-15T15:57:10.625Z,26.80
2018-06-15T15:59:39.940Z,26.70
2018-06-15T16:02:09.082Z,26.90
2018-06-15T16:04:38.804Z,27.20
2018-06-15T16:07:07.877Z,27.20
2018-06-15T16:12:06.292Z,27.10
2018-06-15T16:14:35.382Z,27.40
2018-06-15T16:17:05.519Z,27.40
2018-06-15T16:19:34.575Z,26.80
2018-06-15T16:24:32.528Z,26.50
2018-06-15T16:27:02.013Z,26.90
2018-06-15T16:29:31.043Z,26.80
2018-06-15T16:32:00.373Z,27.00
2018-06-15T16:34:29.513Z,27.30
2018-06-15T16:36:58.616Z,27.40
2018-06-15T16:39:27.754Z,27.30
2018-06-15T16:46:54.690Z,26.70
2018-06-15T16:49:23.820Z,26.80
2018-06-15T16:54:21.718Z,27.50
2018-06-15T17:01:48.332Z,28.00
2018-06-15T17:04:17.512Z,27.90
2018-06-15T17:06:46.707Z,27.60
2018-06-15T17:09:15.843Z,27.20
2018-06-15T17:11:44.920Z,27.10
2018-06-15T17:14:13.986Z,26.80
2018-06-15T17:16:43.482Z,27.00
2018-06-15T17:19:12.538Z,27.40
2018-06-15T17:21:41.873Z,27.60
2018-06-15T17:24:11.363Z,27.80
2018-06-15T17:26:40.558Z,27.80
2018-06-15T17:29:09.846Z,27.90
2018-06-15T17:31:39.274Z,27.80
2018-06-15T17:34:08.348Z,27.90
2018-06-15T17:36:41.605Z,28.10
2018-06-15T17:39:11.788Z,28.10
2018-06-15T17:41:41.069Z,28.10
2018-06-15T17:44:10.185Z,28.00
2018-06-15T17:46:39.727Z,27.90
2018-06-15T17:49:09.444Z,27.90
2018-06-15T17:51:38.620Z,27.70
2018-06-15T17:54:08.033Z,27.70
2018-06-15T17:56:37.159Z,27.70
2018-06-15T17:59:06.489Z,27.50
2018-06-15T18:01:35.874Z,27.60
2018-06-15T18:06:33.692Z,27.40
2018-06-15T18:09:03.303Z,27.40
2018-06-15T18:11:32.392Z,27.70
2018-06-15T18:14:01.573Z,27.90
2018-06-15T18:16:30.975Z,28.00
2018-06-15T18:19:00.071Z,28.30
2018-06-15T18:23:58.470Z,28.30
2018-06-15T18:26:27.633Z,27.80
2018-06-15T18:31:26.071Z,26.80
2018-06-15T18:33:55.290Z,26.20
2018-06-15T18:36:24.516Z,25.70
2018-06-15T18:38:53.808Z,25.20
2018-06-15T18:41:22.945Z,24.60
2018-06-15T18:43:52.169Z,24.30
2018-06-15T18:46:21.655Z,23.90
2018-06-15T18:48:50.831Z,23.60
2018-06-15T18:51:19.909Z,23.20
2018-06-15T18:53:49.243Z,22.90
2018-06-15T18:56:18.407Z,22.70
2018-06-15T18:58:47.513Z,22.50
2018-06-15T19:01:16.827Z,22.40
2018-06-15T19:03:46.015Z,22.20
2018-06-15T19:06:15.127Z,22.10
2018-06-15T19:08:44.311Z,21.90
2018-06-15T19:11:14.371Z,21.80
2018-06-15T19:13:43.513Z,21.70
2018-06-15T19:16:13.129Z,21.50
2018-06-15T19:18:42.233Z,21.30
2018-06-15T19:21:11.475Z,21.20
2018-06-15T19:23:40.826Z,21.10
2018-06-15T19:26:09.929Z,21.00
2018-06-15T19:31:07.852Z,20.80
2018-06-15T19:33:37.342Z,20.70
2018-06-15T19:36:06.429Z,20.60
2018-06-15T19:38:36.158Z,20.50
2018-06-15T19:41:05.302Z,20.40
2018-06-15T19:43:34.413Z,20.30
2018-06-15T19:48:33.465Z,20.20
2018-06-15T19:51:02.710Z,20.20
2018-06-15T19:53:31.923Z,20.20
2018-06-15T19:56:00.985Z,20.10
2018-06-15T19:58:30.073Z,20.00
2018-06-15T20:01:00.110Z,20.00
2018-06-15T20:03:29.233Z,20.00
2018-06-15T20:05:58.333Z,19.90
2018-06-15T20:08:27.465Z,19.90
2018-06-15T20:10:56.611Z,19.80
2018-06-15T20:13:25.729Z,19.80
2018-06-15T20:15:55.328Z,19.70
2018-06-15T20:18:25.128Z,19.70
2018-06-15T20:20:54.199Z,19.60
2018-06-15T20:23:23.385Z,19.50
2018-06-15T20:25:53.001Z,19.40
2018-06-15T20:28:22.057Z,19.30
2018-06-15T20:30:51.259Z,19.20
2018-06-15T20:33:20.368Z,19.10
2018-06-15T20:35:49.630Z,19.10
2018-06-15T20:38:18.963Z,18.90
2018-06-15T20:40:48.086Z,18.90
2018-06-15T20:43:17.135Z,18.80
2018-06-15T20:45:46.279Z,18.70
2018-06-15T20:53:13.308Z,18.50
2018-06-15T20:58:11.099Z,18.50
2018-06-15T21:03:09.328Z,18.20
2018-06-15T21:05:38.451Z,18.10
2018-06-15T21:08:07.578Z,18.10
2018-06-15T21:10:37.127Z,17.90
2018-06-15T21:13:06.430Z,17.90
2018-06-15T21:15:35.682Z,17.80
2018-06-15T21:18:04.853Z,17.70
2018-06-15T21:20:33.937Z,17.70
2018-06-15T21:23:03.258Z,17.70
2018-06-15T21:25:32.512Z,17.70
2018-06-15T21:28:01.713Z,17.80
2018-06-15T21:30:30.887Z,17.80
2018-06-15T21:33:00.107Z,17.80
2018-06-15T21:35:29.477Z,17.70
2018-06-15T21:37:58.841Z,17.50
2018-06-15T21:42:56.845Z,17.50
2018-06-15T21:45:25.899Z,17.30
2018-06-15T21:47:55.410Z,17.30
2018-06-15T21:52:53.287Z,17.20
2018-06-15T21:55:22.937Z,17.10
2018-06-15T21:57:52.005Z,17.10
2018-06-15T22:02:49.873Z,17.10
2018-06-15T22:05:19.073Z,17.00
2018-06-15T22:07:48.224Z,16.80
2018-06-15T22:10:17.637Z,16.70
2018-06-15T22:12:46.731Z,16.80
2018-06-15T22:15:15.873Z,16.80
2018-06-15T22:17:45.402Z,16.60
2018-06-15T22:20:14.420Z,16.60
2018-06-15T22:25:12.736Z,16.60
2018-06-15T22:27:41.864Z,16.60
2018-06-15T22:30:10.936Z,16.50
2018-06-15T22:32:40.298Z,16.40
2018-06-15T22:35:09.351Z,16.30
2018-06-15T22:37:38.476Z,16.30
2018-06-15T22:40:08.390Z,16.20
2018-06-15T22:42:37.487Z,16.20
2018-06-15T22:45:06.566Z,16.10
2018-06-15T22:47:35.850Z,16.00
2018-06-15T22:52:33.612Z,16.00
2018-06-15T22:55:03.057Z,16.00
2018-06-15T22:57:32.151Z,16.10
2018-06-15T23:00:01.197Z,16.00
2018-06-15T23:02:30.605Z,16.10
2018-06-15T23:04:59.691Z,16.10
2018-06-15T23:07:28.793Z,16.10
2018-06-15T23:09:58.842Z,16.10
2018-06-15T23:12:27.917Z,16.10
2018-06-15T23:17:25.801Z,16.00
2018-06-15T23:19:54.893Z,15.90
2018-06-15T23:24:52.861Z,15.90
2018-06-15T23:27:21.935Z,15.90
2018-06-15T23:29:51.070Z,15.90
2018-06-15T23:32:20.223Z,15.80
2018-06-15T23:34:49.262Z,15.90
2018-06-15T23:37:18.301Z,15.80
2018-06-15T23:39:47.478Z,15.80
2018-06-15T23:42:16.889Z,15.60
2018-06-15T23:44:46.217Z,15.60
2018-06-15T23:47:15.566Z,15.50
2018-06-15T23:49:44.647Z,15.50
2018-06-15T23:54:42.699Z,15.40
2018-06-15T23:57:11.785Z,15.40
2018-06-15T23:59:40.868Z,15.30
